Home > Products > Valid Products > TAF

000
FTUS46 KEKA 090536
TAFCEC
TAF
KCEC 090536Z 0906/1006 13005KT P6SM SKC
      TEMPO 0911/0915 6SM MIFG
     FM091900 19008KT P6SM FEW250
      TEMPO 1000/1002 4SM HZ=



000
FTUS46 KEKA 090536
TAFACV
TAF
KACV 090536Z 0906/1006 12003KT P6SM SKC
      TEMPO 0909/0913 6SM BCFG
     FM091900 30006KT P6SM FEW250
      TEMPO 0923/1002 4SM HZ=



000
FTUS46 KEKA 090536
TAFUKI
TAF
KUKI 090536Z 0906/1006 VRB03KT P6SM SKC
      TEMPO 0915/0917 5SM HZ
     FM092100 21005KT P6SM FEW250=



000
FTUS46 KEKA 090536
TAFCEC
TAF
KCEC 090536Z 0906/1006 13005KT P6SM SKC
      TEMPO 0911/0915 6SM MIFG
     FM091900 19008KT P6SM FEW250
      TEMPO 1000/1002 4SM HZ=



000
FTUS46 KEKA 090536
TAFUKI
TAF
KUKI 090536Z 0906/1006 VRB03KT P6SM SKC
      TEMPO 0915/0917 5SM HZ
     FM092100 21005KT P6SM FEW250=



000
FTUS46 KEKA 090536
TAFACV
TAF
KACV 090536Z 0906/1006 12003KT P6SM SKC
      TEMPO 0909/0913 6SM BCFG
     FM091900 30006KT P6SM FEW250
      TEMPO 0923/1002 4SM HZ=



000
FTUS46 KEKA 082320
TAFCEC
TAF
KCEC 082320Z 0900/0924 19006KT P6SM SKC
     FM090200 VRB04KT P6SM SKC
     FM090800 13005KT P6SM SKC
     FM091900 20008KT P6SM SKC=



000
FTUS46 KEKA 082320
TAFACV
TAF
KACV 082320Z 0900/0924 VRB05KT P6SM SKC
     FM090200 VRB04KT P6SM SKC
     FM090800 12005KT P6SM SKC
     FM091800 VRB06KT P6SM SKC=



000
FTUS46 KEKA 082320
TAFUKI
TAF
KUKI 082320Z 0900/0924 VRB03KT P6SM SKC
     FM090300 00000KT P6SM SKC
     FM091600 VRB03KT P6SM SKC=



000
FTUS46 KEKA 082126 CCA
TAFUKI
TAF COR
KUKI 082126Z 0818/0918 VRB03KT P6SM SKC
     FM090200 00000KT P6SM SKC=



000
FTUS46 KEKA 082126 CCA
TAFUKI
TAF COR
KUKI 082126Z 0818/0918 VRB03KT P6SM SKC
     FM090200 00000KT P6SM SKC=



000
FTUS46 KEKA 081723
TAFUKI
TAF
KUKI 081723Z 0818/0918 00000KT P6SM SKC
     FM082000 18005KT P6SM SKC
     FM090300 00000KT P6SM SKC=



000
FTUS46 KEKA 081723
TAFACV
TAF
KACV 081723Z 0818/0918 VRB05KT P6SM SKC
     FM082000 VRB06KT P6SM SKC
     FM090200 VRB03KT P6SM SKC
     FM090800 12005KT P6SM SKC=



000
FTUS46 KEKA 081723
TAFCEC
TAF
KCEC 081723Z 0818/0918 12006KT P6SM SKC
     FM082000 18008KT P6SM SKC
     FM090200 VRB03KT P6SM SKC
     FM090800 12005KT P6SM SKC=



000
FTUS46 KEKA 081120
TAFACV
TAF
KACV 081120Z 0812/0912 08008KT P6SM SKC
     FM081600 12005KT P6SM SKC
     FM082000 30006KT P6SM SKC
     FM090200 06003KT P6SM SKC
     FM090800 10004KT P6SM SKC=



000
FTUS46 KEKA 081120
TAFUKI
TAF
KUKI 081120Z 0812/0912 00000KT P6SM SKC
     FM082300 19006KT P6SM SKC
     FM090300 00000KT P6SM SKC=



000
FTUS46 KEKA 081120
TAFCEC
TAF
KCEC 081120Z 0812/0912 08006KT P6SM SKC
     FM081600 14005KT P6SM SKC
     FM081900 20006KT P6SM SKC
     FM090300 10003KT P6SM SKC=



000
FTUS46 KEKA 081120
TAFACV
TAF
KACV 081120Z 0812/0912 08008KT P6SM SKC
     FM081600 12005KT P6SM SKC
     FM082000 30006KT P6SM SKC
     FM090200 06003KT P6SM SKC
     FM090800 10004KT P6SM SKC=



000
FTUS46 KEKA 081120
TAFUKI
TAF
KUKI 081120Z 0812/0912 00000KT P6SM SKC
     FM082300 19006KT P6SM SKC
     FM090300 00000KT P6SM SKC=



000
FTUS46 KEKA 081120
TAFCEC
TAF
KCEC 081120Z 0812/0912 08006KT P6SM SKC
     FM081600 14005KT P6SM SKC
     FM081900 20006KT P6SM SKC
     FM090300 10003KT P6SM SKC=



000
FTUS46 KEKA 080538
TAFACV
TAF
KACV 080538Z 0806/0906 10008G14KT P6SM SKC
     FM081000 08008KT P6SM SKC
     FM081600 12005KT P6SM SKC
     FM082000 29005KT P6SM SKC
     FM090200 06003KT P6SM SKC=



000
FTUS46 KEKA 080538
TAFCEC
TAF
KCEC 080538Z 0806/0906 07008G14KT P6SM SKC
     FM081000 08006KT P6SM MIFG SKC
     FM081600 14005KT P6SM SKC
     FM081900 18006KT P6SM SKC
     FM090200 14003KT P6SM SKC=



000
FTUS46 KEKA 080538
TAFUKI
TAF
KUKI 080538Z 0806/0906 VRB03KT P6SM SKC
     FM080800 08007KT P6SM SKC
     FM090000 VRB03KT P6SM SKC=



000
FTUS46 KEKA 080538
TAFUKI
TAF
KUKI 080538Z 0806/0906 VRB03KT P6SM SKC
     FM080800 08007KT P6SM SKC
     FM090000 VRB03KT P6SM SKC=



000
FTUS46 KEKA 080538
TAFACV
TAF
KACV 080538Z 0806/0906 10008G14KT P6SM SKC
     FM081000 08008KT P6SM SKC
     FM081600 12005KT P6SM SKC
     FM082000 29005KT P6SM SKC
     FM090200 06003KT P6SM SKC=



000
FTUS46 KEKA 080538
TAFCEC
TAF
KCEC 080538Z 0806/0906 07008G14KT P6SM SKC
     FM081000 08006KT P6SM MIFG SKC
     FM081600 14005KT P6SM SKC
     FM081900 18006KT P6SM SKC
     FM090200 14003KT P6SM SKC=



000
FTUS46 KEKA 072321
TAFACV
TAF
KACV 072321Z 0800/0824 VRB05KT P6SM SKC
     FM080100 VRB03KT P6SM SKC
     FM080300 00000KT P6SM SKC
     FM081500 VRB03KT P6SM SKC
     FM082000 25005KT P6SM SKC=



000
FTUS46 KEKA 072321
TAFUKI
TAF
KUKI 072321Z 0800/0824 00000KT P6SM SKC=



000
FTUS46 KEKA 072321
TAFCEC
TAF
KCEC 072321Z 0800/0824 36006KT P6SM SKC
     FM080500 06004KT P6SM SKC
     FM081200 VRB04KT P6SM SKC
     FM081900 18006KT P6SM SKC=



000
FTUS46 KEKA 071721
TAFCEC
TAF
KCEC 071721Z 0718/0818 VRB05KT P6SM SKC
     FM072000 35006KT P6SM SKC
     FM080500 04004KT P6SM SKC
     FM081300 VRB04KT P6SM SKC=



000
FTUS46 KEKA 071721
TAFUKI
TAF
KUKI 071721Z 0718/0818 00000KT P6SM SKC
     FM072200 VRB03KT P6SM SKC
     FM080200 00000KT P6SM SKC=



000
FTUS46 KEKA 071721
TAFACV
TAF
KACV 071721Z 0718/0818 00000KT P6SM SKC
     FM071900 VRB06KT P6SM SKC
     FM072200 33005KT P6SM SKC
     FM080300 00000KT P6SM SKC
     FM081200 VRB03KT P6SM SKC=



000
FTUS46 KEKA 071721
TAFACV
TAF
KACV 071721Z 0718/0818 00000KT P6SM SKC
     FM071900 VRB06KT P6SM SKC
     FM072200 33005KT P6SM SKC
     FM080300 00000KT P6SM SKC
     FM081200 VRB03KT P6SM SKC=



000
FTUS46 KEKA 071721
TAFUKI
TAF
KUKI 071721Z 0718/0818 00000KT P6SM SKC
     FM072200 VRB03KT P6SM SKC
     FM080200 00000KT P6SM SKC=



000
FTUS46 KEKA 071721
TAFCEC
TAF
KCEC 071721Z 0718/0818 VRB05KT P6SM SKC
     FM072000 35006KT P6SM SKC
     FM080500 04004KT P6SM SKC
     FM081300 VRB04KT P6SM SKC=



000
FTUS46 KEKA 071506 AAB
TAFACV
TAF AMD
KACV 071506Z 0715/0812 00000KT P6SM SKC
     FM071800 32006KT 6SM HZ SKC
     FM080300 03003KT P6SM MIFG SKC
     FM081000 VRB03KT P6SM SKC=



000
FTUS46 KEKA 071309 AAA
TAFACV
TAF AMD
KACV 071309Z 0713/0812 00000KT P6SM SKC
      TEMPO 0713/0716 5SM BR FEW010 SCT250
     FM071800 32006KT 6SM HZ SKC
     FM080300 03003KT P6SM MIFG SKC
     FM081000 VRB03KT P6SM SKC=



000
FTUS46 KEKA 071143
TAFCEC
TAF
KCEC 071143Z 0712/0812 08005KT P6SM SKC
     FM071500 VRB03KT P6SM FEW250
     FM071800 35006KT P6SM SKC
     FM080300 04004KT P6SM MIFG SKC
     FM081000 12005KT P6SM SKC=



000
FTUS46 KEKA 071143
TAFACV
TAF
KACV 071143Z 0712/0812 00000KT P6SM SKC
      TEMPO 0712/0716 5SM BR FEW010 SCT250
     FM071800 32006KT 6SM HZ SKC
     FM080300 03003KT P6SM MIFG SKC
     FM081000 VRB03KT P6SM SKC=



000
FTUS46 KEKA 071143
TAFUKI
TAF
KUKI 071143Z 0712/0812 00000KT P6SM SKC
     FM071600 35003KT P6SM SKC
     FM080700 00000KT P6SM SKC=



000
FTUS46 KEKA 070550
TAFCEC
TAF
KCEC 070550Z 0706/0806 11003KT P6SM FEW050 SCT250
     FM071000 VRB03KT 6SM BR FEW015 SCT250
     FM071500 VRB03KT P6SM FEW250
     FM071800 35006KT P6SM SKC
     FM080300 04004KT P6SM MIFG SKC=



000
FTUS46 KEKA 070550
TAFUKI
TAF
KUKI 070550Z 0706/0806 VRB03KT P6SM SKC
     FM071000 00000KT 6SM BR FEW005
     FM071600 35003KT P6SM SKC
     FM080200 00000KT P6SM SKC=



000
FTUS46 KEKA 070550
TAFACV
TAF
KACV 070550Z 0706/0806 11003KT P6SM FEW050 SCT250
     FM071100 00000KT 6SM BR FEW250
      TEMPO 0712/0716 5SM BR FEW010 SCT250
     FM071800 32006KT 6SM HZ SKC
     FM080300 03003KT P6SM MIFG SKC=



000
FTUS46 KEKA 070550
TAFUKI
TAF
KUKI 070550Z 0706/0806 VRB03KT P6SM SKC
     FM071000 00000KT 6SM BR FEW005
     FM071600 35003KT P6SM SKC
     FM080200 00000KT P6SM SKC=



000
FTUS46 KEKA 070550
TAFACV
TAF
KACV 070550Z 0706/0806 11003KT P6SM FEW050 SCT250
     FM071100 00000KT 6SM BR FEW250
      TEMPO 0712/0716 5SM BR FEW010 SCT250
     FM071800 32006KT 6SM HZ SKC
     FM080300 03003KT P6SM MIFG SKC=



000
FTUS46 KEKA 070550
TAFCEC
TAF
KCEC 070550Z 0706/0806 11003KT P6SM FEW050 SCT250
     FM071000 VRB03KT 6SM BR FEW015 SCT250
     FM071500 VRB03KT P6SM FEW250
     FM071800 35006KT P6SM SKC
     FM080300 04004KT P6SM MIFG SKC=



000
FTUS46 KEKA 062323
TAFCEC
TAF
KCEC 062323Z 0700/0724 VRB05KT P6SM OVC050
     FM070100 VRB03KT P6SM BKN050
     FM071000 00000KT P6SM BKN050
     FM071500 VRB03KT P6SM BKN250
     FM071800 VRB05KT P6SM SKC=



000
FTUS46 KEKA 062323
TAFUKI
TAF
KUKI 062323Z 0700/0724 00000KT P6SM FEW250
     FM070100 00000KT P6SM SKC
     FM072000 VRB03KT P6SM SKC=



000
FTUS46 KEKA 062323
TAFUKI
TAF
KUKI 062323Z 0700/0724 00000KT P6SM FEW250
     FM070100 00000KT P6SM SKC
     FM072000 VRB03KT P6SM SKC=



000
FTUS46 KEKA 062323
TAFACV
TAF
KACV 062323Z 0700/0724 VRB05KT P6SM OVC050
     FM070200 00000KT P6SM OVC050
     FM071200 00000KT 5SM BR OVC050
     FM071800 VRB06KT P6SM SKC=



000
FTUS46 KEKA 062323
TAFCEC
TAF
KCEC 062323Z 0700/0724 VRB05KT P6SM OVC050
     FM070100 VRB03KT P6SM BKN050
     FM071000 00000KT P6SM BKN050
     FM071500 VRB03KT P6SM BKN250
     FM071800 VRB05KT P6SM SKC=



000
FTUS46 KEKA 062323
TAFACV
TAF
KACV 062323Z 0700/0724 VRB05KT P6SM OVC050
     FM070200 00000KT P6SM OVC050
     FM071200 00000KT 5SM BR OVC050
     FM071800 VRB06KT P6SM SKC=



000
FTUS46 KEKA 062203 CCB
TAFACV
TAF COR
KACV 062203Z 0618/0718 VRB05KT P6SM BKN050 OVC060
     FM070200 VRB03KT P6SM OVC050
     FM070400 00000KT P6SM OVC050
     FM071300 VRB03KT P6SM BKN250=



000
FTUS46 KEKA 062203 CCB
TAFACV
TAF COR
KACV 062203Z 0618/0718 VRB05KT P6SM BKN050 OVC060
     FM070200 VRB03KT P6SM OVC050
     FM070400 00000KT P6SM OVC050
     FM071300 VRB03KT P6SM BKN250=



000
FTUS46 KEKA 061958 CCA
TAFACV
TAF COR
KACV 061958Z 0618/0718 VRB04KT P6SM BKN050
      TEMPO 0620/0623 4SM HZ
     FM062300 VRB05KT P6SM BKN250
     FM070300 00000KT P6SM BKN250
     FM071300 VRB03KT P6SM BKN250=



000
FTUS46 KEKA 061720
TAFACV
TAF
KACV 061720Z 0618/0718 11004KT P6SM BKN050
     FM061900 20005KT P6SM BKN250
     FM062100 22005KT P6SM BKN250
     FM070300 00000KT P6SM BKN250
     FM071300 VRB03KT P6SM BKN250=



000
FTUS46 KEKA 061720
TAFCEC
TAF
KCEC 061720Z 0618/0718 00000KT P6SM OVC050
     FM062100 15005KT P6SM FEW050 BKN250
     FM070100 VRB03KT P6SM BKN050
     FM070800 07003KT P6SM BKN250
     FM071600 VRB03KT P6SM SCT250=



000
FTUS46 KEKA 061720
TAFUKI
TAF
KUKI 061720Z 0618/0718 00000KT P6SM FEW250
     FM062300 VRB02KT P6SM SKC
     FM070100 00000KT P6SM SKC
     FM071600 VRB02KT P6SM SKC=



000
FTUS46 KEKA 061437 AAA
TAFCEC
TAF AMD
KCEC 061437Z 0615/0712 13005KT P6SM OVC040
     FM061600 13004KT P6SM FEW025 BKN040 BKN250
     FM062100 22003KT P6SM SCT050 BKN120 BKN200
     FM070100 VRB03KT P6SM SCT050 BKN080
     FM070800 07003KT 6SM BR FEW020 BKN060=



000
FTUS46 KEKA 061140
TAFUKI
TAF
KUKI 061140Z 0612/0712 00000KT P6SM BKN120
     FM061500 00000KT 6SM BR FEW005
     FM061700 00000KT P6SM SCT010 BKN120
     FM062000 32003KT P6SM SKC=



000
FTUS46 KEKA 061140
TAFCEC
TAF
KCEC 061140Z 0612/0712 13005KT P6SM OVC025
     FM061600 13004KT P6SM FEW025 BKN040 BKN250
     FM062100 22003KT P6SM SCT050 BKN120 BKN200
     FM070100 VRB03KT P6SM SCT050 BKN080
     FM070800 07003KT 6SM BR FEW020 BKN060=



000
FTUS46 KEKA 061140
TAFACV
TAF
KACV 061140Z 0612/0712 10004KT P6SM BKN080
     FM061800 15003KT P6SM BKN100
     FM062100 30006KT P6SM BKN200
     FM070300 10003KT P6SM SCT080 BKN200=



000
FTUS46 KEKA 061140
TAFUKI
TAF
KUKI 061140Z 0612/0712 00000KT P6SM BKN120
     FM061500 00000KT 6SM BR FEW005
     FM061700 00000KT P6SM SCT010 BKN120
     FM062000 32003KT P6SM SKC=



000
FTUS46 KEKA 061140
TAFCEC
TAF
KCEC 061140Z 0612/0712 13005KT P6SM OVC025
     FM061600 13004KT P6SM FEW025 BKN040 BKN250
     FM062100 22003KT P6SM SCT050 BKN120 BKN200
     FM070100 VRB03KT P6SM SCT050 BKN080
     FM070800 07003KT 6SM BR FEW020 BKN060=



000
FTUS46 KEKA 061140
TAFACV
TAF
KACV 061140Z 0612/0712 10004KT P6SM BKN080
     FM061800 15003KT P6SM BKN100
     FM062100 30006KT P6SM BKN200
     FM070300 10003KT P6SM SCT080 BKN200=



    US Dept of Commerce
    National Oceanic and Atmospheric Administration
    National Weather Service
    1325 East West Highway
    Silver Spring, MD 20910
    Page Author: NWS Internet Services Team
Disclaimer
Information Quality
Credits
Glossary
Privacy Policy
Freedom of Information Act (FOIA)
About Us
Career Opportunities